Terminal Aerodrome Forecast
Issued by NWS

Home | Current Version | Previous Version | Text Only | Print | Product List | Glossary On
Versions: 1 2 3 4 5 6 7 8 9 10 11 12 13 14 15 16 17 18 19 20 21
000
FTUS43 KBIS 212300
TAFMOT
TAF
KMOT 212340Z 2200/2224 34010KT P6SM SCT050
     FM220600 35007KT P6SM VCTS BKN040CB
     FM220800 35007KT P6SM -SHRA VCTS BKN025CB
     FM221000 36007KT 3SM -SHRA BR VCTS OVC012CB=

USA.gov is the U.S. government's official web portal to all federal, state and local government web resources and services.